sensor_id;sensor_type;location;lat;lon;timestamp;pressure;altitude;pressure_sealevel;temperature;humidity
35519;BME280;21627;48.216;16.482;2023-04-23T00:00:08;99268.91;;;10.67;100.00
35519;BME280;21627;48.216;16.482;2023-04-23T00:02:44;99272.34;;;10.67;100.00
35519;BME280;21627;48.216;16.482;2023-04-23T00:05:16;99265.50;;;10.61;100.00
35519;BME280;21627;48.216;16.482;2023-04-23T00:07:43;99264.66;;;10.61;100.00
35519;BME280;21627;48.216;16.482;2023-04-23T00:10:11;99264.72;;;10.50;100.00
35519;BME280;21627;48.216;16.482;2023-04-23T00:12:40;99257.84;;;10.48;100.00
35519;BME280;21627;48.216;16.482;2023-04-23T00:15:09;99244.94;;;10.46;100.00
35519;BME280;21627;48.216;16.482;2023-04-23T00:17:36;99261.31;;;10.47;100.00
35519;BME280;21627;48.216;16.482;2023-04-23T00:20:04;99263.88;;;10.45;100.00
35519;BME280;21627;48.216;16.482;2023-04-23T00:22:32;99253.59;;;10.37;100.00
35519;BME280;21627;48.216;16.482;2023-04-23T00:24:59;99255.34;;;10.37;100.00
35519;BME280;21627;48.216;16.482;2023-04-23T00:27:26;99252.78;;;10.34;100.00
35519;BME280;21627;48.216;16.482;2023-04-23T00:29:53;99249.34;;;10.30;100.00
35519;BME280;21627;48.216;16.482;2023-04-23T00:32:20;99239.91;;;10.22;100.00
35519;BME280;21627;48.216;16.482;2023-04-23T00:34:48;99242.47;;;10.25;100.00
35519;BME280;21627;48.216;16.482;2023-04-23T00:37:15;99244.22;;;10.19;100.00
35519;BME280;21627;48.216;16.482;2023-04-23T00:39:43;99244.25;;;10.16;100.00
35519;BME280;21627;48.216;16.482;2023-04-23T00:42:11;99238.22;;;10.13;100.00
35519;BME280;21627;48.216;16.482;2023-04-23T00:44:39;99252.88;;;10.14;100.00
35519;BME280;21627;48.216;16.482;2023-04-23T00:47:09;99240.00;;;10.11;100.00
35519;BME280;21627;48.216;16.482;2023-04-23T00:49:36;99241.72;;;10.09;100.00
35519;BME280;21627;48.216;16.482;2023-04-23T00:52:05;99243.44;;;10.07;100.00
35519;BME280;21627;48.216;16.482;2023-04-23T00:54:32;99252.06;;;10.04;100.00
35519;BME280;21627;48.216;16.482;2023-04-23T00:57:00;99240.91;;;10.01;100.00
35519;BME280;21627;48.216;16.482;2023-04-23T00:59:29;99239.22;;;9.95;100.00
35519;BME280;21627;48.216;16.482;2023-04-23T01:01:58;99242.69;;;9.95;100.00
35519;BME280;21627;48.216;16.482;2023-04-23T01:04:27;99240.97;;;9.93;100.00
35519;BME280;21627;48.216;16.482;2023-04-23T01:06:56;99237.53;;;9.89;100.00
35519;BME280;21627;48.216;16.482;2023-04-23T01:09:24;99250.44;;;9.85;100.00
35519;BME280;21627;48.216;16.482;2023-04-23T01:11:54;99241.03;;;9.81;100.00
35519;BME280;21627;48.216;16.482;2023-04-23T01:14:21;99247.06;;;9.78;100.00
35519;BME280;21627;48.216;16.482;2023-04-23T01:16:48;99241.03;;;9.76;100.00
35519;BME280;21627;48.216;16.482;2023-04-23T01:19:16;99245.34;;;9.72;100.00
35519;BME280;21627;48.216;16.482;2023-04-23T01:21:43;99239.34;;;9.69;100.00
35519;BME280;21627;48.216;16.482;2023-04-23T01:24:11;99236.78;;;9.64;100.00
35519;BME280;21627;48.216;16.482;2023-04-23T01:26:38;99229.94;;;9.54;100.00
35519;BME280;21627;48.216;16.482;2023-04-23T01:29:06;99229.09;;;9.53;100.00
35519;BME280;21627;48.216;16.482;2023-04-23T01:31:33;99236.84;;;9.53;100.00
35519;BME280;21627;48.216;16.482;2023-04-23T01:34:01;99226.56;;;9.46;100.00
35519;BME280;21627;48.216;16.482;2023-04-23T01:36:29;99228.25;;;9.48;100.00
35519;BME280;21627;48.216;16.482;2023-04-23T01:38:57;99226.53;;;9.49;100.00
35519;BME280;21627;48.216;16.482;2023-04-23T01:41:24;99234.28;;;9.46;100.00
35519;BME280;21627;48.216;16.482;2023-04-23T01:43:51;99236.91;;;9.43;100.00
35519;BME280;21627;48.216;16.482;2023-04-23T01:46:20;99224.88;;;9.40;100.00
35519;BME280;21627;48.216;16.482;2023-04-23T01:48:47;99237.75;;;9.37;100.00
35519;BME280;21627;48.216;16.482;2023-04-23T01:51:15;99230.03;;;9.36;100.00
35519;BME280;21627;48.216;16.482;2023-04-23T01:53:42;99224.88;;;9.29;100.00
35519;BME280;21627;48.216;16.482;2023-04-23T01:56:10;99230.06;;;9.28;100.00
35519;BME280;21627;48.216;16.482;2023-04-23T01:58:37;99222.34;;;9.20;100.00
35519;BME280;21627;48.216;16.482;2023-04-23T02:01:04;99213.75;;;9.17;100.00
35519;BME280;21627;48.216;16.482;2023-04-23T02:03:32;99221.50;;;9.18;100.00
35519;BME280;21627;48.216;16.482;2023-04-23T02:06:00;99223.22;;;9.16;100.00
35519;BME280;21627;48.216;16.482;2023-04-23T02:08:27;99227.53;;;9.16;100.00
35519;BME280;21627;48.216;16.482;2023-04-23T02:10:54;99223.22;;;9.08;100.00
35519;BME280;21627;48.216;16.482;2023-04-23T02:13:22;99227.53;;;9.08;100.00
35519;BME280;21627;48.216;16.482;2023-04-23T02:15:49;99232.69;;;9.06;100.00
35519;BME280;21627;48.216;16.482;2023-04-23T02:18:16;99234.41;;;9.04;100.00
35519;BME280;21627;48.216;16.482;2023-04-23T02:20:43;99221.53;;;8.98;100.00
35519;BME280;21627;48.216;16.482;2023-04-23T02:23:10;99237.00;;;9.01;100.00
35519;BME280;21627;48.216;16.482;2023-04-23T02:25:38;99237.88;;;9.00;100.00
35519;BME280;21627;48.216;16.482;2023-04-23T02:28:06;99229.28;;;8.98;100.00
35519;BME280;21627;48.216;16.482;2023-04-23T02:30:34;99227.56;;;8.94;100.00
35519;BME280;21627;48.216;16.482;2023-04-23T02:33:02;99232.72;;;8.94;100.00
35519;BME280;21627;48.216;16.482;2023-04-23T02:35:29;99224.13;;;8.89;100.00
35519;BME280;21627;48.216;16.482;2023-04-23T02:37:57;99219.00;;;8.84;100.00
35519;BME280;21627;48.216;16.482;2023-04-23T02:40:24;99225.00;;;8.86;100.00
35519;BME280;21627;48.216;16.482;2023-04-23T02:42:51;99219.00;;;8.80;100.00
35519;BME280;21627;48.216;16.482;2023-04-23T02:45:18;99219.84;;;8.80;100.00
35519;BME280;21627;48.216;16.482;2023-04-23T02:47:45;99225.00;;;8.76;100.00
35519;BME280;21627;48.216;16.482;2023-04-23T02:50:12;99231.88;;;8.69;100.00
35519;BME280;21627;48.216;16.482;2023-04-23T02:52:39;99225.03;;;8.70;100.00
35519;BME280;21627;48.216;16.482;2023-04-23T02:55:08;99227.59;;;8.66;100.00
35519;BME280;21627;48.216;16.482;2023-04-23T02:57:35;99229.31;;;8.63;100.00
35519;BME280;21627;48.216;16.482;2023-04-23T03:00:03;99238.78;;;8.62;100.00
35519;BME280;21627;48.216;16.482;2023-04-23T03:02:33;99225.88;;;8.58;100.00
35519;BME280;21627;48.216;16.482;2023-04-23T03:05:00;99220.75;;;8.58;100.00
35519;BME280;21627;48.216;16.482;2023-04-23T03:07:28;99220.75;;;8.50;100.00
35519;BME280;21627;48.216;16.482;2023-04-23T03:09:55;99222.44;;;8.48;100.00
35519;BME280;21627;48.216;16.482;2023-04-23T03:12:22;99230.19;;;8.45;100.00
35519;BME280;21627;48.216;16.482;2023-04-23T03:14:49;99225.03;;;8.42;100.00
35519;BME280;21627;48.216;16.482;2023-04-23T03:17:16;99228.47;;;8.41;100.00
35519;BME280;21627;48.216;16.482;2023-04-23T03:19:43;99223.25;;;8.36;100.00
35519;BME280;21627;48.216;16.482;2023-04-23T03:22:10;99225.00;;;8.34;100.00
35519;BME280;21627;48.216;16.482;2023-04-23T03:24:37;99226.72;;;8.32;100.00
35519;BME280;21627;48.216;16.482;2023-04-23T03:27:05;99223.28;;;8.30;100.00
35519;BME280;21627;48.216;16.482;2023-04-23T03:29:32;99221.56;;;8.24;100.00
35519;BME280;21627;48.216;16.482;2023-04-23T03:31:59;99211.25;;;8.15;100.00
35519;BME280;21627;48.216;16.482;2023-04-23T03:34:26;99226.72;;;8.21;100.00
35519;BME280;21627;48.216;16.482;2023-04-23T03:36:53;99237.00;;;8.18;100.00
35519;BME280;21627;48.216;16.482;2023-04-23T03:39:21;99229.28;;;8.15;100.00
35519;BME280;21627;48.216;16.482;2023-04-23T03:41:48;99236.97;;;8.11;100.00
35519;BME280;21627;48.216;16.482;2023-04-23T03:44:15;99237.84;;;8.11;100.00
35519;BME280;21627;48.216;16.482;2023-04-23T03:46:42;99233.53;;;8.09;100.00
35519;BME280;21627;48.216;16.482;2023-04-23T03:49:09;99234.41;;;8.01;100.00
35519;BME280;21627;48.216;16.482;2023-04-23T03:51:37;99236.13;;;8.04;100.00
35519;BME280;21627;48.216;16.482;2023-04-23T03:54:04;99248.16;;;8.07;100.00
35519;BME280;21627;48.216;16.482;2023-04-23T03:56:31;99239.53;;;8.00;100.00
35519;BME280;21627;48.216;16.482;2023-04-23T03:58:58;99252.41;;;8.03;100.00
35519;BME280;21627;48.216;16.482;2023-04-23T04:01:25;99239.56;;;7.97;100.00
35519;BME280;21627;48.216;16.482;2023-04-23T04:03:52;99249.84;;;8.00;100.00
35519;BME280;21627;48.216;16.482;2023-04-23T04:06:20;99246.41;;;7.98;100.00
35519;BME280;21627;48.216;16.482;2023-04-23T04:08:47;99245.53;;;7.97;100.00
35519;BME280;21627;48.216;16.482;2023-04-23T04:11:14;99248.09;;;7.96;100.00
35519;BME280;21627;48.216;16.482;2023-04-23T04:13:41;99238.69;;;7.89;100.00
35519;BME280;21627;48.216;16.482;2023-04-23T04:16:08;99241.25;;;7.95;100.00
35519;BME280;21627;48.216;16.482;2023-04-23T04:18:35;99244.69;;;7.94;100.00
35519;BME280;21627;48.216;16.482;2023-04-23T04:21:03;99243.81;;;7.92;100.00
35519;BME280;21627;48.216;16.482;2023-04-23T04:23:30;99247.28;;;7.94;100.00
35519;BME280;21627;48.216;16.482;2023-04-23T04:25:57;99243.81;;;7.93;100.00
35519;BME280;21627;48.216;16.482;2023-04-23T04:28:25;99248.09;;;7.96;100.00
35519;BME280;21627;48.216;16.482;2023-04-23T04:30:52;99249.81;;;7.95;100.00
35519;BME280;21627;48.216;16.482;2023-04-23T04:33:20;99244.69;;;7.92;100.00
35519;BME280;21627;48.216;16.482;2023-04-23T04:35:47;99255.00;;;8.00;100.00
35519;BME280;21627;48.216;16.482;2023-04-23T04:38:15;99267.00;;;8.02;100.00
35519;BME280;21627;48.216;16.482;2023-04-23T04:40:42;99258.44;;;8.02;100.00
35519;BME280;21627;48.216;16.482;2023-04-23T04:43:09;99255.00;;;8.01;100.00
35519;BME280;21627;48.216;16.482;2023-04-23T04:45:36;99261.00;;;8.05;100.00
35519;BME280;21627;48.216;16.482;2023-04-23T04:48:04;99268.72;;;8.11;100.00
35519;BME280;21627;48.216;16.482;2023-04-23T04:50:31;99261.03;;;8.14;100.00
35519;BME280;21627;48.216;16.482;2023-04-23T04:52:58;99268.75;;;8.16;100.00
35519;BME280;21627;48.216;16.482;2023-04-23T04:55:25;99270.47;;;8.20;100.00
35519;BME280;21627;48.216;16.482;2023-04-23T04:57:53;99267.91;;;8.24;100.00
35519;BME280;21627;48.216;16.482;2023-04-23T05:00:27;99277.38;;;8.32;100.00
35519;BME280;21627;48.216;16.482;2023-04-23T05:02:56;99280.84;;;8.41;100.00
35519;BME280;21627;48.216;16.482;2023-04-23T05:05:26;99284.31;;;8.50;100.00
35519;BME280;21627;48.216;16.482;2023-04-23T05:07:53;99283.44;;;8.57;100.00
35519;BME280;21627;48.216;16.482;2023-04-23T05:10:21;99286.88;;;8.66;100.00
35519;BME280;21627;48.216;16.482;2023-04-23T05:12:48;99280.84;;;8.78;100.00
35519;BME280;21627;48.216;16.482;2023-04-23T05:15:17;99273.97;;;8.88;100.00
35519;BME280;21627;48.216;16.482;2023-04-23T05:17:44;99281.69;;;9.06;100.00
35519;BME280;21627;48.216;16.482;2023-04-23T05:20:12;99281.66;;;9.19;100.00
35519;BME280;21627;48.216;16.482;2023-04-23T05:22:41;99279.03;;;9.37;100.00
35519;BME280;21627;48.216;16.482;2023-04-23T05:25:09;99279.88;;;9.42;100.00
35519;BME280;21627;48.216;16.482;2023-04-23T05:27:38;99275.56;;;9.47;100.00
35519;BME280;21627;48.216;16.482;2023-04-23T05:30:08;99284.09;;;9.65;100.00
35519;BME280;21627;48.216;16.482;2023-04-23T05:32:36;99287.50;;;9.76;100.00
35519;BME280;21627;48.216;16.482;2023-04-23T05:35:04;99289.16;;;9.89;100.00
35519;BME280;21627;48.216;16.482;2023-04-23T05:37:33;99293.44;;;9.98;100.00
35519;BME280;21627;48.216;16.482;2023-04-23T05:40:00;99297.72;;;10.02;100.00
35519;BME280;21627;48.216;16.482;2023-04-23T05:42:28;99302.84;;;10.05;100.00
35519;BME280;21627;48.216;16.482;2023-04-23T05:44:55;99297.66;;;10.13;100.00
35519;BME280;21627;48.216;16.482;2023-04-23T05:47:22;99305.34;;;10.24;100.00
35519;BME280;21627;48.216;16.482;2023-04-23T05:49:50;99301.03;;;10.30;100.00
35519;BME280;21627;48.216;16.482;2023-04-23T05:52:17;99298.41;;;10.39;100.00
35519;BME280;21627;48.216;16.482;2023-04-23T05:54:44;99293.13;;;10.50;100.00
35519;BME280;21627;48.216;16.482;2023-04-23T05:57:13;99303.44;;;10.59;100.00
35519;BME280;21627;48.216;16.482;2023-04-23T05:59:40;99303.31;;;10.75;100.00
35519;BME280;21627;48.216;16.482;2023-04-23T06:02:09;99309.31;;;10.81;100.00
35519;BME280;21627;48.216;16.482;2023-04-23T06:04:37;99307.44;;;10.96;100.00
35519;BME280;21627;48.216;16.482;2023-04-23T06:07:05;99309.13;;;11.00;100.00
35519;BME280;21627;48.216;16.482;2023-04-23T06:09:32;99303.88;;;11.09;100.00
35519;BME280;21627;48.216;16.482;2023-04-23T06:11:59;99312.44;;;11.17;100.00
35519;BME280;21627;48.216;16.482;2023-04-23T06:14:26;99314.94;;;11.25;100.00
35519;BME280;21627;48.216;16.482;2023-04-23T06:16:53;99324.28;;;11.38;100.00
35519;BME280;21627;48.216;16.482;2023-04-23T06:19:21;99322.41;;;11.51;100.00
35519;BME280;21627;48.216;16.482;2023-04-23T06:21:50;99322.28;;;11.63;100.00
35519;BME280;21627;48.216;16.482;2023-04-23T06:24:18;99333.41;;;11.75;98.45
35519;BME280;21627;48.216;16.482;2023-04-23T06:26:45;99327.25;;;11.85;97.54
35519;BME280;21627;48.216;16.482;2023-04-23T06:29:12;99327.19;;;11.93;100.00
35519;BME280;21627;48.216;16.482;2023-04-23T06:31:39;99321.84;;;12.05;97.13
35519;BME280;21627;48.216;16.482;2023-04-23T06:34:07;99314.59;;;12.27;95.74
35519;BME280;21627;48.216;16.482;2023-04-23T06:36:35;99327.41;;;12.41;100.00
35519;BME280;21627;48.216;16.482;2023-04-23T06:39:02;99322.88;;;12.53;96.89
35519;BME280;21627;48.216;16.482;2023-04-23T06:41:29;99315.59;;;12.78;94.07
35519;BME280;21627;48.216;16.482;2023-04-23T06:43:56;99320.59;;;12.89;98.54
35519;BME280;21627;48.216;16.482;2023-04-23T06:46:23;99314.41;;;12.98;99.92
35519;BME280;21627;48.216;16.482;2023-04-23T06:48:50;99314.09;;;13.16;93.86
35519;BME280;21627;48.216;16.482;2023-04-23T06:51:18;99319.59;;;13.48;93.13
35519;BME280;21627;48.216;16.482;2023-04-23T06:53:46;99319.38;;;13.60;88.87
35519;BME280;21627;48.216;16.482;2023-04-23T06:56:13;99324.97;;;13.83;90.37
35519;BME280;21627;48.216;16.482;2023-04-23T06:58:40;99310.19;;;13.85;89.67
35519;BME280;21627;48.216;16.482;2023-04-23T07:01:07;99319.22;;;14.10;89.27
35519;BME280;21627;48.216;16.482;2023-04-23T07:03:36;99306.91;;;14.19;87.00
35519;BME280;21627;48.216;16.482;2023-04-23T07:06:03;99316.94;;;14.35;85.42
35519;BME280;21627;48.216;16.482;2023-04-23T07:08:31;99311.22;;;14.59;83.83
35519;BME280;21627;48.216;16.482;2023-04-23T07:10:58;99302.34;;;14.68;85.27
35519;BME280;21627;48.216;16.482;2023-04-23T07:13:25;99304.66;;;14.79;85.54
35519;BME280;21627;48.216;16.482;2023-04-23T07:15:52;99302.69;;;14.90;83.44
35519;BME280;21627;48.216;16.482;2023-04-23T07:18:19;99301.44;;;15.05;80.92
35519;BME280;21627;48.216;16.482;2023-04-23T07:20:46;99302.72;;;15.23;77.55
35519;BME280;21627;48.216;16.482;2023-04-23T07:23:13;99306.34;;;15.48;76.52
35519;BME280;21627;48.216;16.482;2023-04-23T07:25:40;99306.03;;;15.61;77.48
35519;BME280;21627;48.216;16.482;2023-04-23T07:28:07;99305.78;;;15.70;79.07
35519;BME280;21627;48.216;16.482;2023-04-23T07:30:35;99310.53;;;15.87;77.77
35519;BME280;21627;48.216;16.482;2023-04-23T07:33:02;99306.38;;;16.11;77.26
35519;BME280;21627;48.216;16.482;2023-04-23T07:35:30;99314.19;;;16.39;74.03
35519;BME280;21627;48.216;16.482;2023-04-23T07:37:57;99308.75;;;16.47;73.20
35519;BME280;21627;48.216;16.482;2023-04-23T07:40:24;99308.50;;;16.82;68.34
35519;BME280;21627;48.216;16.482;2023-04-23T07:42:52;99310.00;;;16.90;69.13
35519;BME280;21627;48.216;16.482;2023-04-23T07:45:21;99311.25;;;17.04;69.45
35519;BME280;21627;48.216;16.482;2023-04-23T07:47:49;99312.31;;;16.99;71.92
35519;BME280;21627;48.216;16.482;2023-04-23T07:50:16;99307.91;;;17.26;70.32
35519;BME280;21627;48.216;16.482;2023-04-23T07:52:43;99305.28;;;17.51;68.05
35519;BME280;21627;48.216;16.482;2023-04-23T07:55:11;99312.28;;;17.50;68.04
35519;BME280;21627;48.216;16.482;2023-04-23T07:57:38;99314.00;;;17.51;63.78
35519;BME280;21627;48.216;16.482;2023-04-23T08:00:06;99310.88;;;17.65;65.67
35519;BME280;21627;48.216;16.482;2023-04-23T08:02:35;99316.59;;;17.77;67.36
35519;BME280;21627;48.216;16.482;2023-04-23T08:05:03;99316.91;;;17.92;65.49
35519;BME280;21627;48.216;16.482;2023-04-23T08:07:30;99313.84;;;18.05;63.80
35519;BME280;21627;48.216;16.482;2023-04-23T08:09:57;99315.41;;;18.32;62.37
35519;BME280;21627;48.216;16.482;2023-04-23T08:12:28;99321.78;;;18.25;59.10
35519;BME280;21627;48.216;16.482;2023-04-23T08:14:56;99313.25;;;18.64;60.71
35519;BME280;21627;48.216;16.482;2023-04-23T08:17:24;99305.72;;;18.56;58.44
35519;BME280;21627;48.216;16.482;2023-04-23T08:19:51;99313.88;;;18.71;57.89
35519;BME280;21627;48.216;16.482;2023-04-23T08:22:18;99310.59;;;18.88;57.94
35519;BME280;21627;48.216;16.482;2023-04-23T08:24:47;99319.72;;;18.55;55.96
35519;BME280;21627;48.216;16.482;2023-04-23T08:27:14;99308.03;;;18.64;56.27
35519;BME280;21627;48.216;16.482;2023-04-23T08:29:41;99320.28;;;18.86;56.88
35519;BME280;21627;48.216;16.482;2023-04-23T08:32:09;99314.41;;;19.01;58.26
35519;BME280;21627;48.216;16.482;2023-04-23T08:34:37;99306.94;;;19.12;57.62
35519;BME280;21627;48.216;16.482;2023-04-23T08:37:04;99315.53;;;19.36;57.97
35519;BME280;21627;48.216;16.482;2023-04-23T08:39:35;99305.56;;;19.44;57.32
35519;BME280;21627;48.216;16.482;2023-04-23T08:42:14;99303.69;;;19.69;55.42
35519;BME280;21627;48.216;16.482;2023-04-23T08:44:46;99303.06;;;19.62;54.54
35519;BME280;21627;48.216;16.482;2023-04-23T08:47:17;99309.59;;;19.93;54.60
35519;BME280;21627;48.216;16.482;2023-04-23T08:49:45;99302.00;;;20.24;54.81
35519;BME280;21627;48.216;16.482;2023-04-23T08:52:18;99297.09;;;20.36;53.80
35519;BME280;21627;48.216;16.482;2023-04-23T08:54:52;99301.34;;;20.38;51.75
35519;BME280;21627;48.216;16.482;2023-04-23T08:57:19;99301.34;;;20.57;50.85
35519;BME280;21627;48.216;16.482;2023-04-23T08:59:47;99293.41;;;20.76;51.42
35519;BME280;21627;48.216;16.482;2023-04-23T09:02:16;99292.88;;;20.69;54.23
35519;BME280;21627;48.216;16.482;2023-04-23T09:04:44;99298.69;;;20.93;55.84
35519;BME280;21627;48.216;16.482;2023-04-23T09:07:15;99288.25;;;20.74;60.69
35519;BME280;21627;48.216;16.482;2023-04-23T09:09:43;99292.41;;;20.79;59.02
35519;BME280;21627;48.216;16.482;2023-04-23T09:12:11;99292.38;;;20.61;55.79
35519;BME280;21627;48.216;16.482;2023-04-23T09:14:41;99279.34;;;20.41;58.57
35519;BME280;21627;48.216;16.482;2023-04-23T09:17:08;99297.88;;;20.38;56.25
35519;BME280;21627;48.216;16.482;2023-04-23T09:19:36;99282.91;;;20.21;58.64
35519;BME280;21627;48.216;16.482;2023-04-23T09:22:06;99275.31;;;19.96;52.95
35519;BME280;21627;48.216;16.482;2023-04-23T09:24:33;99287.56;;;20.33;53.14
35519;BME280;21627;48.216;16.482;2023-04-23T09:27:01;99277.94;;;20.34;53.45
35519;BME280;21627;48.216;16.482;2023-04-23T09:29:29;99281.63;;;20.29;59.63
35519;BME280;21627;48.216;16.482;2023-04-23T09:32:08;99281.97;;;20.41;59.87
35519;BME280;21627;48.216;16.482;2023-04-23T09:34:36;99278.41;;;20.61;54.22
35519;BME280;21627;48.216;16.482;2023-04-23T09:37:05;99289.09;;;20.75;54.46
35519;BME280;21627;48.216;16.482;2023-04-23T09:39:38;99270.47;;;20.80;56.64
35519;BME280;21627;48.216;16.482;2023-04-23T09:42:06;99270.31;;;21.00;54.20
35519;BME280;21627;48.216;16.482;2023-04-23T09:44:35;99274.34;;;21.07;50.02
35519;BME280;21627;48.216;16.482;2023-04-23T09:47:07;99269.88;;;21.09;49.86
35519;BME280;21627;48.216;16.482;2023-04-23T09:49:47;99265.44;;;21.27;50.72
35519;BME280;21627;48.216;16.482;2023-04-23T09:52:15;99263.66;;;21.45;52.38
35519;BME280;21627;48.216;16.482;2023-04-23T09:54:43;99266.19;;;21.80;51.39
35519;BME280;21627;48.216;16.482;2023-04-23T09:57:12;99263.94;;;22.06;47.93
35519;BME280;21627;48.216;16.482;2023-04-23T09:59:40;99268.66;;;22.15;49.40
35519;BME280;21627;48.216;16.482;2023-04-23T10:02:18;99264.03;;;22.36;50.76
35519;BME280;21627;48.216;16.482;2023-04-23T10:04:50;99266.72;;;22.18;49.69
35519;BME280;21627;48.216;16.482;2023-04-23T10:07:23;99262.84;;;22.25;48.67
35519;BME280;21627;48.216;16.482;2023-04-23T10:09:50;99261.19;;;22.07;50.51
35519;BME280;21627;48.216;16.482;2023-04-23T10:12:19;99253.56;;;22.34;49.80
35519;BME280;21627;48.216;16.482;2023-04-23T10:15:07;99256.31;;;22.33;45.88
35519;BME280;21627;48.216;16.482;2023-04-23T10:17:39;99256.88;;;22.22;49.41
35519;BME280;21627;48.216;16.482;2023-04-23T10:20:08;99239.13;;;22.41;47.52
35519;BME280;21627;48.216;16.482;2023-04-23T10:22:37;99233.28;;;22.66;46.59
35519;BME280;21627;48.216;16.482;2023-04-23T10:25:09;99223.59;;;22.97;43.69
35519;BME280;21627;48.216;16.482;2023-04-23T10:27:40;99234.00;;;23.29;44.40
35519;BME280;21627;48.216;16.482;2023-04-23T10:30:20;99217.88;;;23.48;43.74
35519;BME280;21627;48.216;16.482;2023-04-23T10:32:49;99217.03;;;23.76;43.32
35519;BME280;21627;48.216;16.482;2023-04-23T10:35:17;99216.66;;;23.96;41.73
35519;BME280;21627;48.216;16.482;2023-04-23T10:37:45;99215.88;;;24.22;41.96
35519;BME280;21627;48.216;16.482;2023-04-23T10:40:40;99205.78;;;24.28;41.86
35519;BME280;21627;48.216;16.482;2023-04-23T10:43:06;99203.38;;;24.38;43.40
35519;BME280;21627;48.216;16.482;2023-04-23T10:45:33;99205.38;;;24.61;42.21
35519;BME280;21627;48.216;16.482;2023-04-23T10:48:01;99211.31;;;24.38;42.42
35519;BME280;21627;48.216;16.482;2023-04-23T10:50:31;99199.06;;;24.37;40.90
35519;BME280;21627;48.216;16.482;2023-04-23T10:53:01;99202.41;;;24.53;39.87
35519;BME280;21627;48.216;16.482;2023-04-23T10:55:31;99201.75;;;24.90;39.70
35519;BME280;21627;48.216;16.482;2023-04-23T10:58:06;99204.38;;;24.90;40.61
35519;BME280;21627;48.216;16.482;2023-04-23T11:05:56;99191.78;;;24.93;39.46
35519;BME280;21627;48.216;16.482;2023-04-23T11:08:23;99202.59;;;24.90;40.48
35519;BME280;21627;48.216;16.482;2023-04-23T11:10:58;99197.00;;;25.08;39.23
35519;BME280;21627;48.216;16.482;2023-04-23T11:13:27;99200.91;;;25.40;37.78
35519;BME280;21627;48.216;16.482;2023-04-23T11:16:17;99188.94;;;25.35;35.77
35519;BME280;21627;48.216;16.482;2023-04-23T11:22:31;99184.44;;;25.74;40.51
35519;BME280;21627;48.216;16.482;2023-04-23T11:24:51;99185.38;;;25.85;38.66
35519;BME280;21627;48.216;16.482;2023-04-23T11:27:18;99183.88;;;25.94;37.22
35519;BME280;21627;48.216;16.482;2023-04-23T11:29:46;99190.25;;;25.79;39.34
35519;BME280;21627;48.216;16.482;2023-04-23T11:32:15;99185.03;;;25.77;36.41
35519;BME280;21627;48.216;16.482;2023-04-23T11:34:46;99179.31;;;25.83;35.28
35519;BME280;21627;48.216;16.482;2023-04-23T11:37:18;99172.59;;;25.66;37.25
35519;BME280;21627;48.216;16.482;2023-04-23T11:39:45;99165.25;;;25.70;36.49
35519;BME280;21627;48.216;16.482;2023-04-23T11:42:17;99160.13;;;25.56;37.63
35519;BME280;21627;48.216;16.482;2023-04-23T11:44:47;99161.44;;;25.24;39.24
35519;BME280;21627;48.216;16.482;2023-04-23T11:47:15;99154.13;;;25.15;38.50
35519;BME280;21627;48.216;16.482;2023-04-23T11:49:43;99159.84;;;25.22;37.02
35519;BME280;21627;48.216;16.482;2023-04-23T11:52:13;99150.84;;;25.24;37.95
35519;BME280;21627;48.216;16.482;2023-04-23T11:54:41;99150.22;;;25.34;38.77
35519;BME280;21627;48.216;16.482;2023-04-23T11:57:08;99142.84;;;25.50;39.72
35519;BME280;21627;48.216;16.482;2023-04-23T11:59:36;99153.28;;;25.40;36.69
35519;BME280;21627;48.216;16.482;2023-04-23T12:02:03;99157.91;;;25.50;38.42
35519;BME280;21627;48.216;16.482;2023-04-23T12:04:32;99151.34;;;25.55;36.62
35519;BME280;21627;48.216;16.482;2023-04-23T12:06:59;99151.16;;;25.20;35.93
35519;BME280;21627;48.216;16.482;2023-04-23T12:09:35;99147.09;;;25.53;36.78
35519;BME280;21627;48.216;16.482;2023-04-23T12:12:04;99147.25;;;25.38;38.46
35519;BME280;21627;48.216;16.482;2023-04-23T12:14:32;99146.94;;;25.43;39.37
35519;BME280;21627;48.216;16.482;2023-04-23T12:17:09;99132.28;;;25.50;35.40
35519;BME280;21627;48.216;16.482;2023-04-23T12:19:37;99124.38;;;25.74;37.62
35519;BME280;21627;48.216;16.482;2023-04-23T12:22:06;99124.50;;;25.60;37.59
35519;BME280;21627;48.216;16.482;2023-04-23T12:24:48;99127.69;;;25.28;40.13
35519;BME280;21627;48.216;16.482;2023-04-23T12:27:21;99128.72;;;25.38;39.11
35519;BME280;21627;48.216;16.482;2023-04-23T12:29:58;99129.56;;;25.39;38.14
35519;BME280;21627;48.216;16.482;2023-04-23T12:32:25;99111.00;;;25.52;39.94
35519;BME280;21627;48.216;16.482;2023-04-23T12:34:54;99123.72;;;25.83;40.33
35519;BME280;21627;48.216;16.482;2023-04-23T12:37:27;99110.03;;;25.89;34.72
35519;BME280;21627;48.216;16.482;2023-04-23T12:39:56;99115.00;;;25.94;36.48
35519;BME280;21627;48.216;16.482;2023-04-23T12:42:25;99115.22;;;25.91;36.97
35519;BME280;21627;48.216;16.482;2023-04-23T12:44:52;99119.38;;;26.06;37.51
35519;BME280;21627;48.216;16.482;2023-04-23T12:47:22;99105.97;;;26.21;36.29
35519;BME280;21627;48.216;16.482;2023-04-23T12:49:49;99096.28;;;26.08;36.16
35519;BME280;21627;48.216;16.482;2023-04-23T12:52:20;99104.34;;;26.07;36.46
35519;BME280;21627;48.216;16.482;2023-04-23T12:54:47;99101.59;;;26.08;36.05
35519;BME280;21627;48.216;16.482;2023-04-23T12:57:18;99089.69;;;25.90;35.23
35519;BME280;21627;48.216;16.482;2023-04-23T12:59:49;99093.00;;;25.81;35.19
35519;BME280;21627;48.216;16.482;2023-04-23T13:02:16;99086.97;;;26.03;40.10